Wrightsboro, Texas
Current Conditions -  °F | °C
As of 4:55 AM on Friday 19 Dec 2014 (Local Time) from KT20 Reporting Station
Thunderstorm Thunderstorm  
Wind Chill: 52°   Ceiling: 600
Heat Index: 52°   Visibility: 10mi
Dew Point: 51°   Wind: 8mph
Humidity: 97%   Direction: 30°NNE
Pressure: 30.01"   Gusts: NA
Location:  29.37°N, 97.56°W
Report Text: KT20 191055Z AUTO 03007KT 10SM -VCTSRA OVC006 11/11 A3001 RMK AO2 LTG DSNT NE THRU SW T01100106
Loading
Personal Weather Stations






























Interactive Weather Map New forecast layout! Learn more

10-Day Weather Forecast

Advertisements
Track Severe Weather on mobile